sensor_id;sensor_type;location;lat;lon;timestamp;P1;durP1;ratioP1;P2;durP2;ratioP2
51190;SDS011;37253;48.736;9.294;2023-07-30T00:00:52;1.75;;;1.40;;
51190;SDS011;37253;48.736;9.294;2023-07-30T00:02:52;2.15;;;1.45;;
51190;SDS011;37253;48.736;9.294;2023-07-30T00:04:52;1.75;;;1.30;;
51190;SDS011;37253;48.736;9.294;2023-07-30T00:06:53;1.70;;;1.50;;
51190;SDS011;37253;48.736;9.294;2023-07-30T00:08:53;2.05;;;1.50;;
51190;SDS011;37253;48.736;9.294;2023-07-30T00:10:54;2.47;;;1.55;;
51190;SDS011;37253;48.736;9.294;2023-07-30T00:12:56;3.58;;;1.63;;
51190;SDS011;37253;48.736;9.294;2023-07-30T00:14:56;1.58;;;1.40;;
51190;SDS011;37253;48.736;9.294;2023-07-30T00:16:57;2.65;;;1.52;;
51190;SDS011;37253;48.736;9.294;2023-07-30T00:18:57;3.17;;;1.70;;
51190;SDS011;37253;48.736;9.294;2023-07-30T00:20:57;1.92;;;1.35;;
51190;SDS011;37253;48.736;9.294;2023-07-30T00:22:58;3.35;;;1.50;;
51190;SDS011;37253;48.736;9.294;2023-07-30T00:24:58;2.00;;;1.45;;
51190;SDS011;37253;48.736;9.294;2023-07-30T00:26:59;2.28;;;1.33;;
51190;SDS011;37253;48.736;9.294;2023-07-30T00:28:59;2.83;;;1.60;;
51190;SDS011;37253;48.736;9.294;2023-07-30T00:30:59;3.33;;;1.40;;
51190;SDS011;37253;48.736;9.294;2023-07-30T00:33:00;2.03;;;1.30;;
51190;SDS011;37253;48.736;9.294;2023-07-30T00:35:00;1.90;;;1.40;;
51190;SDS011;37253;48.736;9.294;2023-07-30T00:37:00;2.72;;;1.50;;
51190;SDS011;37253;48.736;9.294;2023-07-30T00:39:01;1.88;;;1.50;;
51190;SDS011;37253;48.736;9.294;2023-07-30T00:41:01;2.10;;;1.42;;
51190;SDS011;37253;48.736;9.294;2023-07-30T00:43:01;2.00;;;1.33;;
51190;SDS011;37253;48.736;9.294;2023-07-30T00:45:02;1.98;;;1.48;;
51190;SDS011;37253;48.736;9.294;2023-07-30T00:47:03;2.22;;;1.55;;
51190;SDS011;37253;48.736;9.294;2023-07-30T00:49:03;1.80;;;1.38;;
51190;SDS011;37253;48.736;9.294;2023-07-30T00:51:04;2.08;;;1.33;;
51190;SDS011;37253;48.736;9.294;2023-07-30T00:53:04;3.13;;;1.30;;
51190;SDS011;37253;48.736;9.294;2023-07-30T00:55:05;4.53;;;1.40;;
51190;SDS011;37253;48.736;9.294;2023-07-30T00:57:07;2.50;;;1.58;;
51190;SDS011;37253;48.736;9.294;2023-07-30T00:59:07;4.05;;;1.50;;
51190;SDS011;37253;48.736;9.294;2023-07-30T01:01:07;2.10;;;1.45;;
51190;SDS011;37253;48.736;9.294;2023-07-30T01:03:07;1.95;;;1.10;;
51190;SDS011;37253;48.736;9.294;2023-07-30T01:05:08;2.65;;;1.83;;
51190;SDS011;37253;48.736;9.294;2023-07-30T01:07:08;5.03;;;1.33;;
51190;SDS011;37253;48.736;9.294;2023-07-30T01:09:09;2.85;;;1.20;;
51190;SDS011;37253;48.736;9.294;2023-07-30T01:11:10;2.33;;;1.27;;
51190;SDS011;37253;48.736;9.294;2023-07-30T01:13:11;1.30;;;1.20;;
51190;SDS011;37253;48.736;9.294;2023-07-30T01:15:12;1.75;;;1.30;;
51190;SDS011;37253;48.736;9.294;2023-07-30T01:17:13;3.13;;;1.30;;
51190;SDS011;37253;48.736;9.294;2023-07-30T01:19:13;1.92;;;1.30;;
51190;SDS011;37253;48.736;9.294;2023-07-30T01:21:14;2.08;;;1.17;;
51190;SDS011;37253;48.736;9.294;2023-07-30T01:23:14;1.40;;;1.20;;
51190;SDS011;37253;48.736;9.294;2023-07-30T01:25:16;1.48;;;1.30;;
51190;SDS011;37253;48.736;9.294;2023-07-30T01:27:18;1.70;;;1.52;;
51190;SDS011;37253;48.736;9.294;2023-07-30T01:29:24;1.73;;;1.35;;
51190;SDS011;37253;48.736;9.294;2023-07-30T01:31:28;1.77;;;1.35;;
51190;SDS011;37253;48.736;9.294;2023-07-30T01:33:30;2.65;;;1.50;;
51190;SDS011;37253;48.736;9.294;2023-07-30T01:35:31;1.20;;;1.10;;
51190;SDS011;37253;48.736;9.294;2023-07-30T01:37:31;1.63;;;1.23;;
51190;SDS011;37253;48.736;9.294;2023-07-30T01:39:33;1.40;;;1.20;;
51190;SDS011;37253;48.736;9.294;2023-07-30T01:41:36;1.77;;;1.25;;
51190;SDS011;37253;48.736;9.294;2023-07-30T01:43:36;1.40;;;1.30;;
51190;SDS011;37253;48.736;9.294;2023-07-30T01:45:37;2.13;;;1.40;;
51190;SDS011;37253;48.736;9.294;2023-07-30T01:47:38;2.55;;;1.40;;
51190;SDS011;37253;48.736;9.294;2023-07-30T01:49:39;2.10;;;1.50;;
51190;SDS011;37253;48.736;9.294;2023-07-30T01:51:39;1.73;;;1.40;;
51190;SDS011;37253;48.736;9.294;2023-07-30T01:53:39;1.65;;;1.40;;
51190;SDS011;37253;48.736;9.294;2023-07-30T01:55:40;1.70;;;1.42;;
51190;SDS011;37253;48.736;9.294;2023-07-30T01:57:43;1.35;;;1.20;;
51190;SDS011;37253;48.736;9.294;2023-07-30T01:59:43;1.25;;;1.15;;
51190;SDS011;37253;48.736;9.294;2023-07-30T02:01:44;1.98;;;1.40;;
51190;SDS011;37253;48.736;9.294;2023-07-30T02:03:44;1.60;;;1.40;;
51190;SDS011;37253;48.736;9.294;2023-07-30T02:05:44;1.40;;;1.10;;
51190;SDS011;37253;48.736;9.294;2023-07-30T02:07:45;1.20;;;1.10;;
51190;SDS011;37253;48.736;9.294;2023-07-30T02:09:45;2.50;;;1.40;;
51190;SDS011;37253;48.736;9.294;2023-07-30T02:11:45;1.80;;;1.25;;
51190;SDS011;37253;48.736;9.294;2023-07-30T02:13:46;2.03;;;1.30;;
51190;SDS011;37253;48.736;9.294;2023-07-30T02:15:46;1.45;;;1.20;;
51190;SDS011;37253;48.736;9.294;2023-07-30T02:17:46;1.55;;;1.40;;
51190;SDS011;37253;48.736;9.294;2023-07-30T02:19:46;1.98;;;1.27;;
51190;SDS011;37253;48.736;9.294;2023-07-30T02:21:47;1.60;;;1.20;;
51190;SDS011;37253;48.736;9.294;2023-07-30T02:23:47;1.50;;;1.40;;
51190;SDS011;37253;48.736;9.294;2023-07-30T02:25:47;2.47;;;1.38;;
51190;SDS011;37253;48.736;9.294;2023-07-30T02:27:48;1.20;;;1.00;;
51190;SDS011;37253;48.736;9.294;2023-07-30T02:29:48;1.45;;;1.08;;
51190;SDS011;37253;48.736;9.294;2023-07-30T02:31:48;1.88;;;1.27;;
51190;SDS011;37253;48.736;9.294;2023-07-30T02:33:49;2.67;;;1.30;;
51190;SDS011;37253;48.736;9.294;2023-07-30T02:35:49;3.40;;;1.38;;
51190;SDS011;37253;48.736;9.294;2023-07-30T02:37:49;1.20;;;1.10;;
51190;SDS011;37253;48.736;9.294;2023-07-30T02:39:50;1.80;;;1.33;;
51190;SDS011;37253;48.736;9.294;2023-07-30T02:41:50;1.80;;;1.40;;
51190;SDS011;37253;48.736;9.294;2023-07-30T02:43:50;1.52;;;1.10;;
51190;SDS011;37253;48.736;9.294;2023-07-30T02:45:50;2.13;;;1.25;;
51190;SDS011;37253;48.736;9.294;2023-07-30T02:47:51;2.45;;;1.10;;
51190;SDS011;37253;48.736;9.294;2023-07-30T02:49:51;1.38;;;1.20;;
51190;SDS011;37253;48.736;9.294;2023-07-30T02:51:51;1.60;;;1.30;;
51190;SDS011;37253;48.736;9.294;2023-07-30T02:53:52;1.38;;;1.10;;
51190;SDS011;37253;48.736;9.294;2023-07-30T02:55:53;1.52;;;1.40;;
51190;SDS011;37253;48.736;9.294;2023-07-30T02:57:53;1.77;;;1.40;;
51190;SDS011;37253;48.736;9.294;2023-07-30T02:59:54;1.20;;;1.10;;
51190;SDS011;37253;48.736;9.294;2023-07-30T03:01:54;1.55;;;1.40;;
51190;SDS011;37253;48.736;9.294;2023-07-30T03:03:54;1.98;;;1.42;;
51190;SDS011;37253;48.736;9.294;2023-07-30T03:05:54;1.80;;;1.27;;
51190;SDS011;37253;48.736;9.294;2023-07-30T03:07:55;2.58;;;1.60;;
51190;SDS011;37253;48.736;9.294;2023-07-30T03:09:55;1.38;;;1.13;;
51190;SDS011;37253;48.736;9.294;2023-07-30T03:11:55;1.52;;;1.23;;
51190;SDS011;37253;48.736;9.294;2023-07-30T03:13:56;1.67;;;1.55;;
51190;SDS011;37253;48.736;9.294;2023-07-30T03:15:56;1.55;;;1.10;;
51190;SDS011;37253;48.736;9.294;2023-07-30T03:17:56;1.67;;;1.27;;
51190;SDS011;37253;48.736;9.294;2023-07-30T03:19:57;1.50;;;1.40;;
51190;SDS011;37253;48.736;9.294;2023-07-30T03:21:57;2.13;;;1.17;;
51190;SDS011;37253;48.736;9.294;2023-07-30T03:23:58;2.92;;;1.40;;
51190;SDS011;37253;48.736;9.294;2023-07-30T03:25:58;1.75;;;1.35;;
51190;SDS011;37253;48.736;9.294;2023-07-30T03:28:00;1.27;;;1.17;;
51190;SDS011;37253;48.736;9.294;2023-07-30T03:30:00;1.27;;;1.17;;
51190;SDS011;37253;48.736;9.294;2023-07-30T03:32:00;1.30;;;1.10;;
51190;SDS011;37253;48.736;9.294;2023-07-30T03:34:01;2.25;;;1.25;;
51190;SDS011;37253;48.736;9.294;2023-07-30T03:36:01;1.20;;;1.08;;
51190;SDS011;37253;48.736;9.294;2023-07-30T03:38:01;1.55;;;1.10;;
51190;SDS011;37253;48.736;9.294;2023-07-30T03:40:02;1.70;;;1.33;;
51190;SDS011;37253;48.736;9.294;2023-07-30T03:42:02;3.00;;;1.23;;
51190;SDS011;37253;48.736;9.294;2023-07-30T03:44:03;2.00;;;1.20;;
51190;SDS011;37253;48.736;9.294;2023-07-30T03:46:03;1.40;;;1.30;;
51190;SDS011;37253;48.736;9.294;2023-07-30T03:48:03;1.67;;;1.45;;
51190;SDS011;37253;48.736;9.294;2023-07-30T03:50:04;1.52;;;1.15;;
51190;SDS011;37253;48.736;9.294;2023-07-30T03:52:04;2.65;;;1.20;;
51190;SDS011;37253;48.736;9.294;2023-07-30T03:54:05;1.75;;;1.30;;
51190;SDS011;37253;48.736;9.294;2023-07-30T03:56:05;1.40;;;1.27;;
51190;SDS011;37253;48.736;9.294;2023-07-30T03:58:06;1.35;;;1.17;;
51190;SDS011;37253;48.736;9.294;2023-07-30T04:00:06;1.80;;;1.40;;
51190;SDS011;37253;48.736;9.294;2023-07-30T04:02:07;1.67;;;1.30;;
51190;SDS011;37253;48.736;9.294;2023-07-30T04:04:07;1.70;;;1.20;;
51190;SDS011;37253;48.736;9.294;2023-07-30T04:06:07;2.78;;;1.13;;
51190;SDS011;37253;48.736;9.294;2023-07-30T04:08:08;1.52;;;1.23;;
51190;SDS011;37253;48.736;9.294;2023-07-30T04:10:08;1.48;;;1.20;;
51190;SDS011;37253;48.736;9.294;2023-07-30T04:12:09;2.38;;;1.13;;
51190;SDS011;37253;48.736;9.294;2023-07-30T04:14:09;1.88;;;1.10;;
51190;SDS011;37253;48.736;9.294;2023-07-30T04:16:09;2.03;;;1.20;;
51190;SDS011;37253;48.736;9.294;2023-07-30T04:18:10;1.90;;;1.27;;
51190;SDS011;37253;48.736;9.294;2023-07-30T04:20:10;1.60;;;1.30;;
51190;SDS011;37253;48.736;9.294;2023-07-30T04:22:11;1.30;;;1.20;;
51190;SDS011;37253;48.736;9.294;2023-07-30T04:24:11;1.83;;;1.45;;
51190;SDS011;37253;48.736;9.294;2023-07-30T04:26:11;1.48;;;1.20;;
51190;SDS011;37253;48.736;9.294;2023-07-30T04:28:11;3.30;;;1.20;;
51190;SDS011;37253;48.736;9.294;2023-07-30T04:30:12;1.98;;;1.20;;
51190;SDS011;37253;48.736;9.294;2023-07-30T04:32:12;1.98;;;1.35;;
51190;SDS011;37253;48.736;9.294;2023-07-30T04:34:12;1.33;;;1.02;;
51190;SDS011;37253;48.736;9.294;2023-07-30T04:36:13;3.00;;;1.30;;
51190;SDS011;37253;48.736;9.294;2023-07-30T04:38:14;1.40;;;1.17;;
51190;SDS011;37253;48.736;9.294;2023-07-30T04:40:14;1.13;;;1.02;;
51190;SDS011;37253;48.736;9.294;2023-07-30T04:42:14;1.45;;;1.20;;
51190;SDS011;37253;48.736;9.294;2023-07-30T04:44:15;1.33;;;1.13;;
51190;SDS011;37253;48.736;9.294;2023-07-30T04:46:15;2.92;;;1.20;;
51190;SDS011;37253;48.736;9.294;2023-07-30T04:48:15;1.45;;;1.35;;
51190;SDS011;37253;48.736;9.294;2023-07-30T04:50:16;0.90;;;0.90;;
51190;SDS011;37253;48.736;9.294;2023-07-30T04:52:16;1.88;;;1.10;;
51190;SDS011;37253;48.736;9.294;2023-07-30T04:54:16;1.20;;;1.08;;
51190;SDS011;37253;48.736;9.294;2023-07-30T04:56:17;2.38;;;1.33;;
51190;SDS011;37253;48.736;9.294;2023-07-30T04:58:17;1.20;;;1.10;;
51190;SDS011;37253;48.736;9.294;2023-07-30T05:00:17;1.70;;;1.38;;
51190;SDS011;37253;48.736;9.294;2023-07-30T05:02:18;1.52;;;1.13;;
51190;SDS011;37253;48.736;9.294;2023-07-30T05:04:18;1.50;;;1.25;;
51190;SDS011;37253;48.736;9.294;2023-07-30T05:06:18;2.63;;;1.30;;
51190;SDS011;37253;48.736;9.294;2023-07-30T05:08:19;1.52;;;1.20;;
51190;SDS011;37253;48.736;9.294;2023-07-30T05:10:19;1.30;;;1.20;;
51190;SDS011;37253;48.736;9.294;2023-07-30T05:12:19;1.30;;;1.20;;
51190;SDS011;37253;48.736;9.294;2023-07-30T05:14:19;1.45;;;1.30;;
51190;SDS011;37253;48.736;9.294;2023-07-30T05:16:20;1.42;;;1.10;;
51190;SDS011;37253;48.736;9.294;2023-07-30T05:18:20;1.13;;;1.02;;
51190;SDS011;37253;48.736;9.294;2023-07-30T05:20:20;1.98;;;1.10;;
51190;SDS011;37253;48.736;9.294;2023-07-30T05:22:21;1.77;;;1.30;;
51190;SDS011;37253;48.736;9.294;2023-07-30T05:24:21;1.92;;;1.20;;
51190;SDS011;37253;48.736;9.294;2023-07-30T05:26:21;1.15;;;1.05;;
51190;SDS011;37253;48.736;9.294;2023-07-30T05:28:22;1.00;;;0.90;;
51190;SDS011;37253;48.736;9.294;2023-07-30T05:30:22;1.15;;;1.00;;
51190;SDS011;37253;48.736;9.294;2023-07-30T05:32:22;1.33;;;1.02;;
51190;SDS011;37253;48.736;9.294;2023-07-30T05:34:22;1.45;;;1.17;;
51190;SDS011;37253;48.736;9.294;2023-07-30T05:36:23;1.45;;;1.02;;
51190;SDS011;37253;48.736;9.294;2023-07-30T05:38:23;1.42;;;1.33;;
51190;SDS011;37253;48.736;9.294;2023-07-30T05:40:23;1.20;;;1.10;;
51190;SDS011;37253;48.736;9.294;2023-07-30T05:42:24;1.13;;;1.00;;
51190;SDS011;37253;48.736;9.294;2023-07-30T05:44:24;1.30;;;1.20;;
51190;SDS011;37253;48.736;9.294;2023-07-30T05:46:24;1.17;;;1.08;;
51190;SDS011;37253;48.736;9.294;2023-07-30T05:48:25;2.08;;;1.30;;
51190;SDS011;37253;48.736;9.294;2023-07-30T05:50:25;1.77;;;1.30;;
51190;SDS011;37253;48.736;9.294;2023-07-30T05:52:25;3.70;;;1.30;;
51190;SDS011;37253;48.736;9.294;2023-07-30T05:54:25;1.33;;;1.13;;
51190;SDS011;37253;48.736;9.294;2023-07-30T05:56:26;1.77;;;1.10;;
51190;SDS011;37253;48.736;9.294;2023-07-30T05:58:26;2.00;;;1.25;;
51190;SDS011;37253;48.736;9.294;2023-07-30T06:00:26;2.08;;;1.15;;
51190;SDS011;37253;48.736;9.294;2023-07-30T06:02:27;1.27;;;1.10;;
51190;SDS011;37253;48.736;9.294;2023-07-30T06:04:27;3.17;;;1.17;;
51190;SDS011;37253;48.736;9.294;2023-07-30T06:06:28;1.20;;;1.10;;
51190;SDS011;37253;48.736;9.294;2023-07-30T06:08:29;1.73;;;1.33;;
51190;SDS011;37253;48.736;9.294;2023-07-30T06:10:30;1.40;;;1.20;;
51190;SDS011;37253;48.736;9.294;2023-07-30T06:12:30;1.85;;;1.20;;
51190;SDS011;37253;48.736;9.294;2023-07-30T06:14:30;1.77;;;1.25;;
51190;SDS011;37253;48.736;9.294;2023-07-30T06:16:31;1.60;;;1.25;;
51190;SDS011;37253;48.736;9.294;2023-07-30T06:18:31;2.80;;;1.20;;
51190;SDS011;37253;48.736;9.294;2023-07-30T06:20:31;1.50;;;1.20;;
51190;SDS011;37253;48.736;9.294;2023-07-30T06:22:32;1.30;;;1.20;;
51190;SDS011;37253;48.736;9.294;2023-07-30T06:24:32;1.27;;;1.17;;
51190;SDS011;37253;48.736;9.294;2023-07-30T06:26:32;1.75;;;1.38;;
51190;SDS011;37253;48.736;9.294;2023-07-30T06:28:32;2.17;;;1.40;;
51190;SDS011;37253;48.736;9.294;2023-07-30T06:30:33;2.65;;;1.50;;
51190;SDS011;37253;48.736;9.294;2023-07-30T06:32:33;8.57;;;1.60;;
51190;SDS011;37253;48.736;9.294;2023-07-30T06:34:34;4.70;;;1.48;;
51190;SDS011;37253;48.736;9.294;2023-07-30T06:36:34;4.40;;;1.40;;
51190;SDS011;37253;48.736;9.294;2023-07-30T06:38:34;2.90;;;1.35;;
51190;SDS011;37253;48.736;9.294;2023-07-30T06:40:34;4.65;;;1.50;;
51190;SDS011;37253;48.736;9.294;2023-07-30T06:42:35;7.93;;;1.42;;
51190;SDS011;37253;48.736;9.294;2023-07-30T06:44:35;2.58;;;1.30;;
51190;SDS011;37253;48.736;9.294;2023-07-30T06:46:36;4.80;;;1.35;;
51190;SDS011;37253;48.736;9.294;2023-07-30T06:48:36;6.35;;;1.77;;
51190;SDS011;37253;48.736;9.294;2023-07-30T06:50:36;6.53;;;1.83;;
51190;SDS011;37253;48.736;9.294;2023-07-30T06:52:37;4.93;;;1.75;;
51190;SDS011;37253;48.736;9.294;2023-07-30T06:54:37;7.65;;;1.60;;
51190;SDS011;37253;48.736;9.294;2023-07-30T06:56:37;4.40;;;2.38;;
51190;SDS011;37253;48.736;9.294;2023-07-30T06:58:38;2.28;;;1.70;;
51190;SDS011;37253;48.736;9.294;2023-07-30T07:00:38;4.15;;;1.50;;
51190;SDS011;37253;48.736;9.294;2023-07-30T07:02:38;6.43;;;1.77;;
51190;SDS011;37253;48.736;9.294;2023-07-30T07:04:39;6.57;;;1.95;;
51190;SDS011;37253;48.736;9.294;2023-07-30T07:06:39;4.75;;;1.60;;
51190;SDS011;37253;48.736;9.294;2023-07-30T07:08:39;5.40;;;1.95;;
51190;SDS011;37253;48.736;9.294;2023-07-30T07:10:39;4.38;;;2.13;;
51190;SDS011;37253;48.736;9.294;2023-07-30T07:12:40;8.30;;;2.17;;
51190;SDS011;37253;48.736;9.294;2023-07-30T07:14:40;6.18;;;2.03;;
51190;SDS011;37253;48.736;9.294;2023-07-30T07:16:42;5.55;;;1.63;;
51190;SDS011;37253;48.736;9.294;2023-07-30T07:18:43;4.50;;;1.80;;
51190;SDS011;37253;48.736;9.294;2023-07-30T07:20:43;7.22;;;2.00;;
51190;SDS011;37253;48.736;9.294;2023-07-30T07:22:43;5.07;;;2.13;;
51190;SDS011;37253;48.736;9.294;2023-07-30T07:24:44;4.15;;;1.98;;
51190;SDS011;37253;48.736;9.294;2023-07-30T07:26:44;6.20;;;1.83;;
51190;SDS011;37253;48.736;9.294;2023-07-30T07:28:45;4.38;;;1.95;;
51190;SDS011;37253;48.736;9.294;2023-07-30T07:30:45;3.92;;;1.80;;
51190;SDS011;37253;48.736;9.294;2023-07-30T07:32:46;4.97;;;1.88;;
51190;SDS011;37253;48.736;9.294;2023-07-30T07:34:50;6.97;;;2.05;;
51190;SDS011;37253;48.736;9.294;2023-07-30T07:36:50;4.95;;;1.98;;
51190;SDS011;37253;48.736;9.294;2023-07-30T07:38:50;5.30;;;1.88;;
51190;SDS011;37253;48.736;9.294;2023-07-30T07:40:51;6.18;;;1.90;;
51190;SDS011;37253;48.736;9.294;2023-07-30T07:42:51;6.85;;;1.90;;
51190;SDS011;37253;48.736;9.294;2023-07-30T07:44:51;5.93;;;1.95;;
51190;SDS011;37253;48.736;9.294;2023-07-30T07:46:52;5.50;;;2.10;;
51190;SDS011;37253;48.736;9.294;2023-07-30T07:48:52;4.00;;;1.77;;
51190;SDS011;37253;48.736;9.294;2023-07-30T07:50:53;5.60;;;2.22;;
51190;SDS011;37253;48.736;9.294;2023-07-30T07:52:53;4.43;;;2.05;;
51190;SDS011;37253;48.736;9.294;2023-07-30T07:54:53;6.05;;;2.35;;
51190;SDS011;37253;48.736;9.294;2023-07-30T07:56:54;3.83;;;1.85;;
51190;SDS011;37253;48.736;9.294;2023-07-30T07:58:54;4.65;;;2.10;;
51190;SDS011;37253;48.736;9.294;2023-07-30T08:00:55;3.28;;;1.75;;
51190;SDS011;37253;48.736;9.294;2023-07-30T08:02:55;6.13;;;1.83;;
51190;SDS011;37253;48.736;9.294;2023-07-30T08:04:55;6.38;;;1.95;;
51190;SDS011;37253;48.736;9.294;2023-07-30T08:06:56;2.58;;;1.70;;
51190;SDS011;37253;48.736;9.294;2023-07-30T08:08:59;4.95;;;2.35;;
51190;SDS011;37253;48.736;9.294;2023-07-30T08:11:04;2.95;;;1.80;;
51190;SDS011;37253;48.736;9.294;2023-07-30T08:13:07;4.32;;;1.90;;
51190;SDS011;37253;48.736;9.294;2023-07-30T08:15:08;4.00;;;1.48;;
51190;SDS011;37253;48.736;9.294;2023-07-30T08:17:08;5.85;;;1.70;;
51190;SDS011;37253;48.736;9.294;2023-07-30T08:19:09;2.85;;;1.65;;
51190;SDS011;37253;48.736;9.294;2023-07-30T08:21:09;3.10;;;1.60;;
51190;SDS011;37253;48.736;9.294;2023-07-30T08:23:09;3.05;;;1.77;;
51190;SDS011;37253;48.736;9.294;2023-07-30T08:25:10;2.67;;;1.63;;
51190;SDS011;37253;48.736;9.294;2023-07-30T08:27:10;3.50;;;1.60;;
51190;SDS011;37253;48.736;9.294;2023-07-30T08:29:10;3.42;;;1.70;;
51190;SDS011;37253;48.736;9.294;2023-07-30T08:31:13;2.93;;;2.00;;
51190;SDS011;37253;48.736;9.294;2023-07-30T08:33:13;6.40;;;1.70;;
51190;SDS011;37253;48.736;9.294;2023-07-30T08:35:13;4.22;;;1.80;;
51190;SDS011;37253;48.736;9.294;2023-07-30T08:37:14;4.50;;;1.90;;
51190;SDS011;37253;48.736;9.294;2023-07-30T08:39:14;4.13;;;1.73;;
51190;SDS011;37253;48.736;9.294;2023-07-30T08:41:15;2.25;;;1.48;;
51190;SDS011;37253;48.736;9.294;2023-07-30T08:43:15;3.50;;;1.73;;
51190;SDS011;37253;48.736;9.294;2023-07-30T08:45:16;3.33;;;1.58;;
51190;SDS011;37253;48.736;9.294;2023-07-30T08:47:16;3.42;;;1.73;;
51190;SDS011;37253;48.736;9.294;2023-07-30T08:49:17;3.65;;;1.38;;
51190;SDS011;37253;48.736;9.294;2023-07-30T08:51:17;3.92;;;1.55;;
51190;SDS011;37253;48.736;9.294;2023-07-30T08:53:18;3.20;;;1.42;;
51190;SDS011;37253;48.736;9.294;2023-07-30T08:55:18;2.90;;;1.38;;
51190;SDS011;37253;48.736;9.294;2023-07-30T08:57:19;2.30;;;1.40;;
51190;SDS011;37253;48.736;9.294;2023-07-30T08:59:20;2.30;;;1.35;;
51190;SDS011;37253;48.736;9.294;2023-07-30T09:01:21;2.92;;;1.50;;
51190;SDS011;37253;48.736;9.294;2023-07-30T09:03:23;2.40;;;1.50;;
51190;SDS011;37253;48.736;9.294;2023-07-30T09:05:26;4.53;;;1.90;;
51190;SDS011;37253;48.736;9.294;2023-07-30T09:07:29;3.35;;;1.50;;
51190;SDS011;37253;48.736;9.294;2023-07-30T09:09:29;3.38;;;1.60;;
51190;SDS011;37253;48.736;9.294;2023-07-30T09:11:30;2.88;;;1.40;;
51190;SDS011;37253;48.736;9.294;2023-07-30T09:13:30;2.65;;;1.67;;
51190;SDS011;37253;48.736;9.294;2023-07-30T09:15:37;2.30;;;1.38;;
51190;SDS011;37253;48.736;9.294;2023-07-30T09:17:38;2.30;;;1.40;;
51190;SDS011;37253;48.736;9.294;2023-07-30T09:19:38;2.63;;;1.63;;
51190;SDS011;37253;48.736;9.294;2023-07-30T09:21:38;4.03;;;2.08;;
51190;SDS011;37253;48.736;9.294;2023-07-30T09:23:39;3.78;;;1.58;;
51190;SDS011;37253;48.736;9.294;2023-07-30T09:25:44;4.70;;;1.65;;
51190;SDS011;37253;48.736;9.294;2023-07-30T09:27:50;2.90;;;1.40;;
51190;SDS011;37253;48.736;9.294;2023-07-30T09:29:58;2.95;;;1.30;;
51190;SDS011;37253;48.736;9.294;2023-07-30T09:31:59;2.97;;;1.60;;
51190;SDS011;37253;48.736;9.294;2023-07-30T09:34:00;2.90;;;1.77;;
51190;SDS011;37253;48.736;9.294;2023-07-30T09:36:03;2.90;;;1.40;;
51190;SDS011;37253;48.736;9.294;2023-07-30T09:38:04;1.88;;;1.30;;
51190;SDS011;37253;48.736;9.294;2023-07-30T09:40:05;2.40;;;1.70;;
51190;SDS011;37253;48.736;9.294;2023-07-30T09:42:06;2.47;;;1.50;;
51190;SDS011;37253;48.736;9.294;2023-07-30T09:44:07;3.42;;;1.50;;
51190;SDS011;37253;48.736;9.294;2023-07-30T09:46:07;1.98;;;1.25;;
51190;SDS011;37253;48.736;9.294;2023-07-30T09:48:08;3.28;;;1.60;;
51190;SDS011;37253;48.736;9.294;2023-07-30T09:50:08;3.72;;;1.30;;
51190;SDS011;37253;48.736;9.294;2023-07-30T09:52:09;4.03;;;1.23;;
51190;SDS011;37253;48.736;9.294;2023-07-30T09:54:13;3.70;;;1.38;;
51190;SDS011;37253;48.736;9.294;2023-07-30T09:56:14;3.50;;;1.48;;
51190;SDS011;37253;48.736;9.294;2023-07-30T09:58:14;2.35;;;1.25;;
51190;SDS011;37253;48.736;9.294;2023-07-30T10:00:15;2.20;;;1.30;;
51190;SDS011;37253;48.736;9.294;2023-07-30T10:02:15;1.65;;;1.27;;
51190;SDS011;37253;48.736;9.294;2023-07-30T10:04:18;2.20;;;1.30;;
51190;SDS011;37253;48.736;9.294;2023-07-30T10:06:19;2.53;;;1.20;;
51190;SDS011;37253;48.736;9.294;2023-07-30T10:08:21;2.15;;;1.30;;
51190;SDS011;37253;48.736;9.294;2023-07-30T10:10:24;1.73;;;1.30;;
51190;SDS011;37253;48.736;9.294;2023-07-30T10:12:25;2.63;;;1.30;;
51190;SDS011;37253;48.736;9.294;2023-07-30T10:14:30;2.25;;;1.30;;
51190;SDS011;37253;48.736;9.294;2023-07-30T10:16:30;1.67;;;1.10;;
51190;SDS011;37253;48.736;9.294;2023-07-30T10:18:40;1.98;;;1.20;;
51190;SDS011;37253;48.736;9.294;2023-07-30T10:20:43;2.15;;;1.30;;
51190;SDS011;37253;48.736;9.294;2023-07-30T10:22:55;1.80;;;1.10;;
51190;SDS011;37253;48.736;9.294;2023-07-30T10:24:57;2.28;;;1.33;;
51190;SDS011;37253;48.736;9.294;2023-07-30T10:27:05;2.65;;;1.20;;
51190;SDS011;37253;48.736;9.294;2023-07-30T10:29:12;1.50;;;1.10;;
51190;SDS011;37253;48.736;9.294;2023-07-30T10:31:13;1.63;;;1.10;;
51190;SDS011;37253;48.736;9.294;2023-07-30T10:33:13;2.83;;;1.52;;
51190;SDS011;37253;48.736;9.294;2023-07-30T10:35:34;2.60;;;1.25;;
51190;SDS011;37253;48.736;9.294;2023-07-30T10:37:47;3.05;;;1.10;;
51190;SDS011;37253;48.736;9.294;2023-07-30T10:39:48;2.28;;;1.38;;
51190;SDS011;37253;48.736;9.294;2023-07-30T10:41:49;1.90;;;1.13;;
51190;SDS011;37253;48.736;9.294;2023-07-30T10:43:50;2.00;;;1.40;;
51190;SDS011;37253;48.736;9.294;2023-07-30T10:45:51;2.35;;;1.10;;
51190;SDS011;37253;48.736;9.294;2023-07-30T10:47:51;1.25;;;1.00;;
51190;SDS011;37253;48.736;9.294;2023-07-30T10:49:51;1.95;;;1.25;;
51190;SDS011;37253;48.736;9.294;2023-07-30T10:51:54;2.15;;;1.20;;
51190;SDS011;37253;48.736;9.294;2023-07-30T10:55:58;1.92;;;1.10;;
51190;SDS011;37253;48.736;9.294;2023-07-30T10:58:01;1.50;;;1.17;;
51190;SDS011;37253;48.736;9.294;2023-07-30T11:00:02;1.98;;;1.35;;
51190;SDS011;37253;48.736;9.294;2023-07-30T11:02:03;1.70;;;1.20;;
51190;SDS011;37253;48.736;9.294;2023-07-30T11:04:19;1.98;;;1.20;;
51190;SDS011;37253;48.736;9.294;2023-07-30T11:06:21;2.50;;;1.20;;
51190;SDS011;37253;48.736;9.294;2023-07-30T11:08:32;2.05;;;0.95;;
51190;SDS011;37253;48.736;9.294;2023-07-30T11:10:43;1.38;;;1.05;;
51190;SDS011;37253;48.736;9.294;2023-07-30T11:12:45;2.05;;;1.10;;
51190;SDS011;37253;48.736;9.294;2023-07-30T11:14:45;2.38;;;1.13;;
51190;SDS011;37253;48.736;9.294;2023-07-30T11:16:55;1.70;;;1.13;;
51190;SDS011;37253;48.736;9.294;2023-07-30T11:18:59;1.58;;;1.30;;
51190;SDS011;37253;48.736;9.294;2023-07-30T11:23:22;2.97;;;1.25;;
51190;SDS011;37253;48.736;9.294;2023-07-30T11:25:23;1.88;;;1.20;;
51190;SDS011;37253;48.736;9.294;2023-07-30T11:27:23;2.75;;;1.20;;
51190;SDS011;37253;48.736;9.294;2023-07-30T11:29:24;1.60;;;1.08;;
51190;SDS011;37253;48.736;9.294;2023-07-30T11:31:24;2.83;;;1.10;;
51190;SDS011;37253;48.736;9.294;2023-07-30T11:33:27;2.75;;;1.10;;
51190;SDS011;37253;48.736;9.294;2023-07-30T11:35:28;1.83;;;1.30;;
51190;SDS011;37253;48.736;9.294;2023-07-30T11:37:28;1.92;;;1.23;;
51190;SDS011;37253;48.736;9.294;2023-07-30T11:39:29;2.67;;;1.20;;
51190;SDS011;37253;48.736;9.294;2023-07-30T11:41:30;1.30;;;1.20;;
51190;SDS011;37253;48.736;9.294;2023-07-30T11:43:30;2.03;;;1.25;;
51190;SDS011;37253;48.736;9.294;2023-07-30T11:45:31;1.92;;;1.15;;
51190;SDS011;37253;48.736;9.294;2023-07-30T11:47:31;1.52;;;1.00;;
51190;SDS011;37253;48.736;9.294;2023-07-30T11:49:32;1.75;;;1.30;;
51190;SDS011;37253;48.736;9.294;2023-07-30T11:51:32;1.40;;;1.15;;
51190;SDS011;37253;48.736;9.294;2023-07-30T11:53:54;1.90;;;1.10;;
51190;SDS011;37253;48.736;9.294;2023-07-30T11:57:57;1.88;;;1.17;;
51190;SDS011;37253;48.736;9.294;2023-07-30T11:59:58;2.38;;;1.10;;
51190;SDS011;37253;48.736;9.294;2023-07-30T12:01:58;1.40;;;1.10;;
51190;SDS011;37253;48.736;9.294;2023-07-30T12:03:59;1.98;;;1.17;;
51190;SDS011;37253;48.736;9.294;2023-07-30T12:06:04;1.42;;;1.20;;
51190;SDS011;37253;48.736;9.294;2023-07-30T12:08:06;1.98;;;1.20;;
51190;SDS011;37253;48.736;9.294;2023-07-30T12:10:13;1.20;;;0.90;;
51190;SDS011;37253;48.736;9.294;2023-07-30T12:12:14;1.27;;;1.17;;
51190;SDS011;37253;48.736;9.294;2023-07-30T12:14:14;1.42;;;1.20;;
51190;SDS011;37253;48.736;9.294;2023-07-30T12:16:15;1.35;;;1.00;;